sensor_id;sensor_type;location;lat;lon;timestamp;P1;durP1;ratioP1;P2;durP2;ratioP2
74851;SDS011;63400;50.650;6.832;2023-02-01T02:01:32;14.45;;;4.85;;
74851;SDS011;63400;50.650;6.832;2023-02-01T02:03:57;15.48;;;4.00;;
74851;SDS011;63400;50.650;6.832;2023-02-01T02:08:55;14.05;;;3.75;;
74851;SDS011;63400;50.650;6.832;2023-02-01T02:11:21;19.63;;;4.18;;
74851;SDS011;63400;50.650;6.832;2023-02-01T02:13:50;12.35;;;3.53;;
74851;SDS011;63400;50.650;6.832;2023-02-01T02:22:12;11.68;;;3.78;;
74851;SDS011;63400;50.650;6.832;2023-02-01T02:28:11;12.27;;;3.92;;
74851;SDS011;63400;50.650;6.832;2023-02-01T02:44:12;12.45;;;2.58;;
74851;SDS011;63400;50.650;6.832;2023-02-01T02:47:02;14.85;;;3.67;;
74851;SDS011;63400;50.650;6.832;2023-02-01T02:49:51;19.92;;;3.65;;
74851;SDS011;63400;50.650;6.832;2023-02-01T02:52:39;16.08;;;3.63;;
74851;SDS011;63400;50.650;6.832;2023-02-01T02:55:28;14.13;;;3.85;;
74851;SDS011;63400;50.650;6.832;2023-02-01T03:01:16;15.95;;;3.95;;
74851;SDS011;63400;50.650;6.832;2023-02-01T03:04:00;13.07;;;3.35;;
74851;SDS011;63400;50.650;6.832;2023-02-01T03:06:37;10.82;;;3.47;;
74851;SDS011;63400;50.650;6.832;2023-02-01T03:09:04;15.13;;;3.72;;
74851;SDS011;63400;50.650;6.832;2023-02-01T03:11:35;12.48;;;3.33;;
74851;SDS011;63400;50.650;6.832;2023-02-01T03:14:20;14.25;;;3.95;;
74851;SDS011;63400;50.650;6.832;2023-02-01T03:16:47;20.85;;;3.13;;
74851;SDS011;63400;50.650;6.832;2023-02-01T03:21:57;16.02;;;2.65;;
74851;SDS011;63400;50.650;6.832;2023-02-01T03:27:18;16.98;;;3.50;;
74851;SDS011;63400;50.650;6.832;2023-02-01T03:29:48;13.93;;;2.90;;
74851;SDS011;63400;50.650;6.832;2023-02-01T03:32:17;13.93;;;3.10;;
74851;SDS011;63400;50.650;6.832;2023-02-01T03:34:43;16.92;;;3.63;;
74851;SDS011;63400;50.650;6.832;2023-02-01T03:37:10;18.90;;;3.08;;
74851;SDS011;63400;50.650;6.832;2023-02-01T03:42:07;15.63;;;3.92;;
74851;SDS011;63400;50.650;6.832;2023-02-01T03:45:01;13.38;;;3.17;;
74851;SDS011;63400;50.650;6.832;2023-02-01T03:47:38;11.90;;;2.95;;
74851;SDS011;63400;50.650;6.832;2023-02-01T03:50:09;11.85;;;3.15;;
74851;SDS011;63400;50.650;6.832;2023-02-01T03:55:09;17.77;;;4.40;;
74851;SDS011;63400;50.650;6.832;2023-02-01T03:57:39;13.60;;;3.33;;
74851;SDS011;63400;50.650;6.832;2023-02-01T04:00:09;15.13;;;3.80;;
74851;SDS011;63400;50.650;6.832;2023-02-01T04:02:49;18.33;;;5.00;;
74851;SDS011;63400;50.650;6.832;2023-02-01T04:05:16;15.07;;;3.88;;
74851;SDS011;63400;50.650;6.832;2023-02-01T04:07:41;16.02;;;4.22;;
74851;SDS011;63400;50.650;6.832;2023-02-01T04:10:07;14.32;;;4.47;;
74851;SDS011;63400;50.650;6.832;2023-02-01T04:12:33;14.60;;;3.90;;
74851;SDS011;63400;50.650;6.832;2023-02-01T04:14:59;13.40;;;4.18;;
74851;SDS011;63400;50.650;6.832;2023-02-01T04:17:24;17.67;;;4.47;;
74851;SDS011;63400;50.650;6.832;2023-02-01T04:19:50;14.85;;;4.55;;
74851;SDS011;63400;50.650;6.832;2023-02-01T04:22:15;17.42;;;4.15;;
74851;SDS011;63400;50.650;6.832;2023-02-01T04:24:41;16.17;;;3.90;;
74851;SDS011;63400;50.650;6.832;2023-02-01T04:27:06;15.65;;;4.82;;
74851;SDS011;63400;50.650;6.832;2023-02-01T04:29:32;16.00;;;4.38;;
74851;SDS011;63400;50.650;6.832;2023-02-01T04:31:58;17.67;;;4.95;;
74851;SDS011;63400;50.650;6.832;2023-02-01T04:34:24;17.50;;;4.20;;
74851;SDS011;63400;50.650;6.832;2023-02-01T04:36:50;14.35;;;4.22;;
74851;SDS011;63400;50.650;6.832;2023-02-01T04:39:16;14.48;;;4.38;;
74851;SDS011;63400;50.650;6.832;2023-02-01T04:41:41;16.50;;;4.45;;
74851;SDS011;63400;50.650;6.832;2023-02-01T04:44:08;12.77;;;4.20;;
74851;SDS011;63400;50.650;6.832;2023-02-01T04:46:38;14.05;;;4.35;;
74851;SDS011;63400;50.650;6.832;2023-02-01T04:49:04;15.57;;;4.03;;
74851;SDS011;63400;50.650;6.832;2023-02-01T04:51:29;12.27;;;4.03;;
74851;SDS011;63400;50.650;6.832;2023-02-01T04:53:55;16.50;;;4.18;;
74851;SDS011;63400;50.650;6.832;2023-02-01T04:56:21;13.77;;;3.88;;
74851;SDS011;63400;50.650;6.832;2023-02-01T04:58:46;14.75;;;3.85;;
74851;SDS011;63400;50.650;6.832;2023-02-01T05:01:12;14.13;;;4.28;;
74851;SDS011;63400;50.650;6.832;2023-02-01T05:03:37;19.33;;;5.25;;
74851;SDS011;63400;50.650;6.832;2023-02-01T05:06:03;13.57;;;3.85;;
74851;SDS011;63400;50.650;6.832;2023-02-01T05:08:30;13.30;;;4.93;;
74851;SDS011;63400;50.650;6.832;2023-02-01T05:10:56;18.15;;;4.45;;
74851;SDS011;63400;50.650;6.832;2023-02-01T05:13:21;15.98;;;4.28;;
74851;SDS011;63400;50.650;6.832;2023-02-01T05:16:05;17.92;;;4.43;;
74851;SDS011;63400;50.650;6.832;2023-02-01T05:18:31;18.65;;;4.45;;
74851;SDS011;63400;50.650;6.832;2023-02-01T05:20:57;18.30;;;3.53;;
74851;SDS011;63400;50.650;6.832;2023-02-01T05:23:22;15.70;;;3.97;;
74851;SDS011;63400;50.650;6.832;2023-02-01T05:25:48;16.30;;;3.95;;
74851;SDS011;63400;50.650;6.832;2023-02-01T05:28:17;18.75;;;4.10;;
74851;SDS011;63400;50.650;6.832;2023-02-01T05:30:42;15.77;;;2.97;;
74851;SDS011;63400;50.650;6.832;2023-02-01T05:33:08;14.00;;;3.20;;
74851;SDS011;63400;50.650;6.832;2023-02-01T05:35:33;12.13;;;3.90;;
74851;SDS011;63400;50.650;6.832;2023-02-01T05:37:59;17.55;;;3.65;;
74851;SDS011;63400;50.650;6.832;2023-02-01T05:40:24;19.35;;;3.67;;
74851;SDS011;63400;50.650;6.832;2023-02-01T05:42:50;13.40;;;3.75;;
74851;SDS011;63400;50.650;6.832;2023-02-01T05:45:15;21.63;;;3.92;;
74851;SDS011;63400;50.650;6.832;2023-02-01T05:47:40;14.93;;;4.28;;
74851;SDS011;63400;50.650;6.832;2023-02-01T05:50:07;12.07;;;3.35;;
74851;SDS011;63400;50.650;6.832;2023-02-01T05:52:32;15.95;;;4.25;;
74851;SDS011;63400;50.650;6.832;2023-02-01T05:54:58;15.88;;;3.42;;
74851;SDS011;63400;50.650;6.832;2023-02-01T05:57:24;20.45;;;4.68;;
74851;SDS011;63400;50.650;6.832;2023-02-01T05:59:50;15.68;;;4.35;;
74851;SDS011;63400;50.650;6.832;2023-02-01T06:02:16;15.98;;;3.30;;
74851;SDS011;63400;50.650;6.832;2023-02-01T06:04:42;18.33;;;4.38;;
74851;SDS011;63400;50.650;6.832;2023-02-01T06:07:10;15.85;;;3.78;;
74851;SDS011;63400;50.650;6.832;2023-02-01T06:09:36;19.48;;;4.50;;
74851;SDS011;63400;50.650;6.832;2023-02-01T06:12:02;21.00;;;5.40;;
74851;SDS011;63400;50.650;6.832;2023-02-01T06:14:43;19.25;;;5.28;;
74851;SDS011;63400;50.650;6.832;2023-02-01T06:17:08;17.35;;;4.55;;
74851;SDS011;63400;50.650;6.832;2023-02-01T06:19:43;15.10;;;4.40;;
74851;SDS011;63400;50.650;6.832;2023-02-01T06:22:32;14.50;;;4.28;;
74851;SDS011;63400;50.650;6.832;2023-02-01T06:27:43;20.17;;;5.00;;
74851;SDS011;63400;50.650;6.832;2023-02-01T06:30:10;17.85;;;4.78;;
74851;SDS011;63400;50.650;6.832;2023-02-01T06:32:38;18.88;;;4.13;;
74851;SDS011;63400;50.650;6.832;2023-02-01T06:35:06;17.85;;;4.50;;
74851;SDS011;63400;50.650;6.832;2023-02-01T06:37:32;17.20;;;5.38;;
74851;SDS011;63400;50.650;6.832;2023-02-01T06:39:58;15.73;;;4.97;;
74851;SDS011;63400;50.650;6.832;2023-02-01T06:42:23;16.30;;;4.90;;
74851;SDS011;63400;50.650;6.832;2023-02-01T06:44:49;17.13;;;4.47;;
74851;SDS011;63400;50.650;6.832;2023-02-01T06:47:14;19.75;;;5.15;;
74851;SDS011;63400;50.650;6.832;2023-02-01T06:49:40;19.17;;;4.30;;
74851;SDS011;63400;50.650;6.832;2023-02-01T06:52:05;21.92;;;5.47;;
74851;SDS011;63400;50.650;6.832;2023-02-01T06:54:31;15.95;;;4.82;;
74851;SDS011;63400;50.650;6.832;2023-02-01T06:56:58;21.33;;;5.50;;
74851;SDS011;63400;50.650;6.832;2023-02-01T06:59:24;22.02;;;4.28;;
74851;SDS011;63400;50.650;6.832;2023-02-01T07:01:49;15.93;;;4.97;;
74851;SDS011;63400;50.650;6.832;2023-02-01T07:04:15;17.20;;;4.35;;
74851;SDS011;63400;50.650;6.832;2023-02-01T07:06:41;18.50;;;4.45;;
74851;SDS011;63400;50.650;6.832;2023-02-01T07:09:07;20.15;;;5.30;;
74851;SDS011;63400;50.650;6.832;2023-02-01T07:11:33;27.00;;;6.30;;
74851;SDS011;63400;50.650;6.832;2023-02-01T07:13:58;21.25;;;6.05;;
74851;SDS011;63400;50.650;6.832;2023-02-01T07:16:24;22.58;;;4.50;;
74851;SDS011;63400;50.650;6.832;2023-02-01T07:18:51;21.23;;;5.22;;
74851;SDS011;63400;50.650;6.832;2023-02-01T07:21:17;17.65;;;4.55;;
74851;SDS011;63400;50.650;6.832;2023-02-01T07:23:43;16.70;;;3.83;;
74851;SDS011;63400;50.650;6.832;2023-02-01T07:26:09;18.33;;;4.63;;
74851;SDS011;63400;50.650;6.832;2023-02-01T07:28:38;17.17;;;4.20;;
74851;SDS011;63400;50.650;6.832;2023-02-01T07:31:05;23.73;;;5.25;;
74851;SDS011;63400;50.650;6.832;2023-02-01T07:33:35;19.25;;;4.95;;
74851;SDS011;63400;50.650;6.832;2023-02-01T07:36:01;21.58;;;5.28;;
74851;SDS011;63400;50.650;6.832;2023-02-01T07:38:28;16.45;;;4.47;;
74851;SDS011;63400;50.650;6.832;2023-02-01T07:41:02;20.15;;;5.15;;
74851;SDS011;63400;50.650;6.832;2023-02-01T07:43:28;18.08;;;5.13;;
74851;SDS011;63400;50.650;6.832;2023-02-01T07:45:54;19.83;;;5.68;;
74851;SDS011;63400;50.650;6.832;2023-02-01T07:48:20;22.52;;;6.60;;
74851;SDS011;63400;50.650;6.832;2023-02-01T07:50:47;20.73;;;5.88;;
74851;SDS011;63400;50.650;6.832;2023-02-01T07:53:12;18.58;;;4.63;;
74851;SDS011;63400;50.650;6.832;2023-02-01T07:55:38;17.77;;;4.80;;
74851;SDS011;63400;50.650;6.832;2023-02-01T07:58:04;20.58;;;5.25;;
74851;SDS011;63400;50.650;6.832;2023-02-01T08:00:30;17.52;;;4.40;;
74851;SDS011;63400;50.650;6.832;2023-02-01T08:03:14;11.23;;;2.72;;
74851;SDS011;63400;50.650;6.832;2023-02-01T08:05:39;16.65;;;3.40;;
74851;SDS011;63400;50.650;6.832;2023-02-01T08:08:05;21.02;;;5.03;;
74851;SDS011;63400;50.650;6.832;2023-02-01T08:10:31;17.27;;;4.43;;
74851;SDS011;63400;50.650;6.832;2023-02-01T08:12:57;18.55;;;4.68;;
74851;SDS011;63400;50.650;6.832;2023-02-01T08:15:26;17.27;;;4.07;;
74851;SDS011;63400;50.650;6.832;2023-02-01T08:17:57;21.25;;;5.15;;
74851;SDS011;63400;50.650;6.832;2023-02-01T08:20:27;14.85;;;4.10;;
74851;SDS011;63400;50.650;6.832;2023-02-01T08:22:53;15.13;;;3.45;;
74851;SDS011;63400;50.650;6.832;2023-02-01T08:25:19;15.68;;;4.05;;
74851;SDS011;63400;50.650;6.832;2023-02-01T08:27:45;17.38;;;4.47;;
74851;SDS011;63400;50.650;6.832;2023-02-01T08:30:11;19.77;;;4.63;;
74851;SDS011;63400;50.650;6.832;2023-02-01T08:32:37;18.20;;;4.68;;
74851;SDS011;63400;50.650;6.832;2023-02-01T08:35:03;21.38;;;5.35;;
74851;SDS011;63400;50.650;6.832;2023-02-01T08:37:29;18.85;;;4.25;;
74851;SDS011;63400;50.650;6.832;2023-02-01T08:39:55;14.27;;;3.65;;
74851;SDS011;63400;50.650;6.832;2023-02-01T08:42:21;14.57;;;3.22;;
74851;SDS011;63400;50.650;6.832;2023-02-01T08:45:05;19.40;;;4.68;;
74851;SDS011;63400;50.650;6.832;2023-02-01T08:52:23;15.77;;;3.92;;
74851;SDS011;63400;50.650;6.832;2023-02-01T08:54:49;21.13;;;4.35;;
74851;SDS011;63400;50.650;6.832;2023-02-01T08:57:15;14.82;;;3.60;;
74851;SDS011;63400;50.650;6.832;2023-02-01T08:59:43;17.52;;;3.72;;
74851;SDS011;63400;50.650;6.832;2023-02-01T09:02:13;22.63;;;4.38;;
74851;SDS011;63400;50.650;6.832;2023-02-01T09:04:40;15.93;;;4.10;;
74851;SDS011;63400;50.650;6.832;2023-02-01T09:07:06;16.13;;;3.63;;
74851;SDS011;63400;50.650;6.832;2023-02-01T09:09:31;13.48;;;2.67;;
74851;SDS011;63400;50.650;6.832;2023-02-01T09:11:57;16.48;;;3.08;;
74851;SDS011;63400;50.650;6.832;2023-02-01T09:14:23;13.85;;;2.70;;
74851;SDS011;63400;50.650;6.832;2023-02-01T09:16:48;12.18;;;2.45;;
74851;SDS011;63400;50.650;6.832;2023-02-01T09:19:14;14.02;;;3.40;;
74851;SDS011;63400;50.650;6.832;2023-02-01T09:21:40;12.50;;;3.92;;
74851;SDS011;63400;50.650;6.832;2023-02-01T09:24:05;14.60;;;3.15;;
74851;SDS011;63400;50.650;6.832;2023-02-01T09:26:32;12.40;;;2.63;;
74851;SDS011;63400;50.650;6.832;2023-02-01T09:28:58;12.75;;;2.72;;
74851;SDS011;63400;50.650;6.832;2023-02-01T09:31:24;12.48;;;2.50;;
74851;SDS011;63400;50.650;6.832;2023-02-01T09:33:49;11.45;;;2.70;;
74851;SDS011;63400;50.650;6.832;2023-02-01T09:36:15;14.07;;;2.40;;
74851;SDS011;63400;50.650;6.832;2023-02-01T09:38:40;12.75;;;1.85;;
74851;SDS011;63400;50.650;6.832;2023-02-01T09:44:23;15.23;;;2.90;;
74851;SDS011;63400;50.650;6.832;2023-02-01T09:47:14;13.75;;;3.35;;
74851;SDS011;63400;50.650;6.832;2023-02-01T09:49:48;12.55;;;2.63;;
74851;SDS011;63400;50.650;6.832;2023-02-01T09:52:17;12.30;;;3.40;;
74851;SDS011;63400;50.650;6.832;2023-02-01T09:54:52;10.38;;;2.50;;
74851;SDS011;63400;50.650;6.832;2023-02-01T09:57:35;11.93;;;2.75;;
74851;SDS011;63400;50.650;6.832;2023-02-01T10:00:06;12.57;;;2.97;;
74851;SDS011;63400;50.650;6.832;2023-02-01T10:02:40;10.82;;;2.03;;
74851;SDS011;63400;50.650;6.832;2023-02-01T10:05:10;14.50;;;2.90;;
74851;SDS011;63400;50.650;6.832;2023-02-01T10:07:57;8.98;;;1.80;;
74851;SDS011;63400;50.650;6.832;2023-02-01T10:13:12;9.43;;;1.75;;
74851;SDS011;63400;50.650;6.832;2023-02-01T10:15:52;8.43;;;2.28;;
74851;SDS011;63400;50.650;6.832;2023-02-01T10:23:43;10.73;;;2.75;;
74851;SDS011;63400;50.650;6.832;2023-02-01T10:26:29;10.52;;;2.65;;
74851;SDS011;63400;50.650;6.832;2023-02-01T10:29:03;8.30;;;1.30;;
74851;SDS011;63400;50.650;6.832;2023-02-01T10:31:30;9.35;;;1.85;;
74851;SDS011;63400;50.650;6.832;2023-02-01T10:34:01;6.88;;;1.98;;
74851;SDS011;63400;50.650;6.832;2023-02-01T10:36:42;8.13;;;2.45;;
74851;SDS011;63400;50.650;6.832;2023-02-01T10:39:16;14.45;;;3.05;;
74851;SDS011;63400;50.650;6.832;2023-02-01T10:41:42;8.07;;;2.83;;
74851;SDS011;63400;50.650;6.832;2023-02-01T10:44:12;10.05;;;2.75;;
74851;SDS011;63400;50.650;6.832;2023-02-01T10:46:42;11.15;;;2.83;;
74851;SDS011;63400;50.650;6.832;2023-02-01T10:49:12;9.63;;;2.80;;
74851;SDS011;63400;50.650;6.832;2023-02-01T10:54:35;8.75;;;2.38;;
74851;SDS011;63400;50.650;6.832;2023-02-01T10:57:05;7.03;;;2.53;;
74851;SDS011;63400;50.650;6.832;2023-02-01T10:59:32;14.50;;;2.67;;
74851;SDS011;63400;50.650;6.832;2023-02-01T11:02:02;8.05;;;2.08;;
74851;SDS011;63400;50.650;6.832;2023-02-01T11:07:24;14.25;;;3.35;;
74851;SDS011;63400;50.650;6.832;2023-02-01T11:09:51;11.48;;;2.88;;
74851;SDS011;63400;50.650;6.832;2023-02-01T11:17:47;13.35;;;2.90;;
74851;SDS011;63400;50.650;6.832;2023-02-01T11:20:18;11.90;;;2.97;;
74851;SDS011;63400;50.650;6.832;2023-02-01T11:22:46;7.35;;;2.13;;
74851;SDS011;63400;50.650;6.832;2023-02-01T11:25:13;11.90;;;2.90;;
74851;SDS011;63400;50.650;6.832;2023-02-01T11:27:43;6.95;;;2.28;;
74851;SDS011;63400;50.650;6.832;2023-02-01T11:30:14;10.18;;;1.98;;
74851;SDS011;63400;50.650;6.832;2023-02-01T11:32:44;11.35;;;2.50;;
74851;SDS011;63400;50.650;6.832;2023-02-01T11:35:13;11.43;;;1.67;;
74851;SDS011;63400;50.650;6.832;2023-02-01T11:37:53;10.30;;;2.53;;
74851;SDS011;63400;50.650;6.832;2023-02-01T11:40:27;11.63;;;2.03;;
74851;SDS011;63400;50.650;6.832;2023-02-01T11:43:28;11.57;;;2.25;;
74851;SDS011;63400;50.650;6.832;2023-02-01T11:48:23;13.20;;;2.20;;
74851;SDS011;63400;50.650;6.832;2023-02-01T11:56:46;10.05;;;2.17;;
74851;SDS011;63400;50.650;6.832;2023-02-01T12:05:20;9.95;;;3.10;;
74851;SDS011;63400;50.650;6.832;2023-02-01T12:19:31;7.82;;;1.80;;
74851;SDS011;63400;50.650;6.832;2023-02-01T12:28:08;9.43;;;2.67;;
74851;SDS011;63400;50.650;6.832;2023-02-01T12:33:52;8.23;;;2.00;;
74851;SDS011;63400;50.650;6.832;2023-02-01T12:50:14;11.82;;;2.17;;
74851;SDS011;63400;50.650;6.832;2023-02-01T12:52:58;13.25;;;3.17;;
74851;SDS011;63400;50.650;6.832;2023-02-01T12:55:47;14.27;;;2.92;;
74851;SDS011;63400;50.650;6.832;2023-02-01T12:58:19;8.80;;;1.92;;
74851;SDS011;63400;50.650;6.832;2023-02-01T13:00:54;11.73;;;2.17;;
74851;SDS011;63400;50.650;6.832;2023-02-01T13:03:40;10.70;;;2.63;;
74851;SDS011;63400;50.650;6.832;2023-02-01T13:11:19;11.45;;;2.80;;
74851;SDS011;63400;50.650;6.832;2023-02-01T13:21:45;15.38;;;2.85;;
74851;SDS011;63400;50.650;6.832;2023-02-01T13:24:22;12.45;;;2.60;;
74851;SDS011;63400;50.650;6.832;2023-02-01T13:26:55;11.68;;;3.72;;
74851;SDS011;63400;50.650;6.832;2023-02-01T13:29:21;17.17;;;3.13;;
74851;SDS011;63400;50.650;6.832;2023-02-01T13:39:59;13.80;;;2.63;;
74851;SDS011;63400;50.650;6.832;2023-02-01T13:45:40;14.82;;;2.88;;
74851;SDS011;63400;50.650;6.832;2023-02-01T13:48:14;11.88;;;2.75;;
74851;SDS011;63400;50.650;6.832;2023-02-01T13:50:49;10.98;;;2.35;;
74851;SDS011;63400;50.650;6.832;2023-02-01T13:53:17;9.43;;;1.98;;
74851;SDS011;63400;50.650;6.832;2023-02-01T13:55:46;14.93;;;3.05;;
74851;SDS011;63400;50.650;6.832;2023-02-01T14:03:58;15.13;;;2.97;;
74851;SDS011;63400;50.650;6.832;2023-02-01T14:14:37;13.15;;;2.30;;
74851;SDS011;63400;50.650;6.832;2023-02-01T14:19:24;15.23;;;3.25;;
74851;SDS011;63400;50.650;6.832;2023-02-01T14:21:55;9.90;;;2.30;;
74851;SDS011;63400;50.650;6.832;2023-02-01T14:24:26;10.93;;;2.20;;
74851;SDS011;63400;50.650;6.832;2023-02-01T14:26:53;10.32;;;2.63;;
74851;SDS011;63400;50.650;6.832;2023-02-01T14:37:22;14.05;;;3.25;;
74851;SDS011;63400;50.650;6.832;2023-02-01T14:39:54;11.45;;;2.33;;
74851;SDS011;63400;50.650;6.832;2023-02-01T14:44:55;15.50;;;3.38;;
74851;SDS011;63400;50.650;6.832;2023-02-01T14:47:40;11.35;;;2.20;;
74851;SDS011;63400;50.650;6.832;2023-02-01T14:52:41;11.80;;;2.50;;
74851;SDS011;63400;50.650;6.832;2023-02-01T14:55:12;14.25;;;3.10;;
74851;SDS011;63400;50.650;6.832;2023-02-01T14:57:39;12.57;;;2.90;;
74851;SDS011;63400;50.650;6.832;2023-02-01T15:00:08;12.10;;;2.10;;
74851;SDS011;63400;50.650;6.832;2023-02-01T15:02:41;12.35;;;2.45;;
74851;SDS011;63400;50.650;6.832;2023-02-01T15:08:11;14.32;;;3.28;;
74851;SDS011;63400;50.650;6.832;2023-02-01T15:10:42;12.35;;;2.97;;
74851;SDS011;63400;50.650;6.832;2023-02-01T15:13:17;14.13;;;3.78;;
74851;SDS011;63400;50.650;6.832;2023-02-01T15:18:24;11.15;;;2.72;;
74851;SDS011;63400;50.650;6.832;2023-02-01T15:20:56;14.85;;;2.90;;
74851;SDS011;63400;50.650;6.832;2023-02-01T15:23:24;13.88;;;3.72;;
74851;SDS011;63400;50.650;6.832;2023-02-01T15:25:50;10.93;;;3.15;;
74851;SDS011;63400;50.650;6.832;2023-02-01T15:28:16;15.00;;;3.55;;
74851;SDS011;63400;50.650;6.832;2023-02-01T15:33:39;13.02;;;2.65;;
74851;SDS011;63400;50.650;6.832;2023-02-01T15:36:11;17.65;;;4.15;;
74851;SDS011;63400;50.650;6.832;2023-02-01T15:38:43;14.02;;;3.65;;
74851;SDS011;63400;50.650;6.832;2023-02-01T15:41:21;13.80;;;3.88;;
74851;SDS011;63400;50.650;6.832;2023-02-01T15:46:31;13.05;;;3.35;;
74851;SDS011;63400;50.650;6.832;2023-02-01T15:48:58;14.55;;;2.97;;
74851;SDS011;63400;50.650;6.832;2023-02-01T15:51:25;11.02;;;2.47;;
74851;SDS011;63400;50.650;6.832;2023-02-01T15:54:01;11.43;;;3.47;;
74851;SDS011;63400;50.650;6.832;2023-02-01T15:56:28;13.10;;;2.45;;
74851;SDS011;63400;50.650;6.832;2023-02-01T15:58:59;10.45;;;2.35;;
74851;SDS011;63400;50.650;6.832;2023-02-01T16:01:26;12.32;;;2.55;;
74851;SDS011;63400;50.650;6.832;2023-02-01T16:06:45;12.85;;;2.90;;
74851;SDS011;63400;50.650;6.832;2023-02-01T16:09:37;11.98;;;2.72;;
74851;SDS011;63400;50.650;6.832;2023-02-01T16:14:56;16.35;;;2.88;;
74851;SDS011;63400;50.650;6.832;2023-02-01T16:17:22;13.52;;;3.50;;
74851;SDS011;63400;50.650;6.832;2023-02-01T16:19:47;13.15;;;3.17;;
74851;SDS011;63400;50.650;6.832;2023-02-01T16:22:13;16.02;;;3.35;;
74851;SDS011;63400;50.650;6.832;2023-02-01T16:24:39;11.38;;;3.15;;
74851;SDS011;63400;50.650;6.832;2023-02-01T16:27:04;15.90;;;4.28;;
74851;SDS011;63400;50.650;6.832;2023-02-01T16:29:32;20.05;;;3.97;;
74851;SDS011;63400;50.650;6.832;2023-02-01T16:31:58;14.48;;;3.55;;
74851;SDS011;63400;50.650;6.832;2023-02-01T16:34:24;13.85;;;3.72;;
74851;SDS011;63400;50.650;6.832;2023-02-01T16:36:49;13.18;;;3.15;;
74851;SDS011;63400;50.650;6.832;2023-02-01T16:39:22;17.83;;;4.10;;
74851;SDS011;63400;50.650;6.832;2023-02-01T16:41:48;15.70;;;3.88;;
74851;SDS011;63400;50.650;6.832;2023-02-01T16:44:14;15.85;;;3.80;;
74851;SDS011;63400;50.650;6.832;2023-02-01T16:46:41;16.52;;;4.03;;
74851;SDS011;63400;50.650;6.832;2023-02-01T16:49:20;16.67;;;3.75;;
74851;SDS011;63400;50.650;6.832;2023-02-01T16:51:47;14.30;;;3.97;;
74851;SDS011;63400;50.650;6.832;2023-02-01T16:54:15;15.27;;;3.03;;
74851;SDS011;63400;50.650;6.832;2023-02-01T16:56:42;15.35;;;3.80;;
74851;SDS011;63400;50.650;6.832;2023-02-01T16:59:10;11.15;;;3.00;;
74851;SDS011;63400;50.650;6.832;2023-02-01T17:01:35;16.65;;;3.50;;
74851;SDS011;63400;50.650;6.832;2023-02-01T17:04:05;16.60;;;3.03;;
74851;SDS011;63400;50.650;6.832;2023-02-01T17:06:31;11.07;;;2.42;;
74851;SDS011;63400;50.650;6.832;2023-02-01T17:08:58;10.27;;;2.95;;
74851;SDS011;63400;50.650;6.832;2023-02-01T17:11:24;12.98;;;3.60;;
74851;SDS011;63400;50.650;6.832;2023-02-01T17:13:50;10.80;;;3.28;;
74851;SDS011;63400;50.650;6.832;2023-02-01T17:16:26;13.52;;;3.50;;
74851;SDS011;63400;50.650;6.832;2023-02-01T17:21:38;20.05;;;4.65;;
74851;SDS011;63400;50.650;6.832;2023-02-01T17:24:13;13.90;;;3.10;;
74851;SDS011;63400;50.650;6.832;2023-02-01T17:26:40;13.30;;;3.75;;
74851;SDS011;63400;50.650;6.832;2023-02-01T17:29:06;14.95;;;3.33;;
74851;SDS011;63400;50.650;6.832;2023-02-01T17:31:38;14.55;;;3.80;;
74851;SDS011;63400;50.650;6.832;2023-02-01T17:34:06;13.27;;;3.83;;
74851;SDS011;63400;50.650;6.832;2023-02-01T17:36:33;10.07;;;3.50;;
74851;SDS011;63400;50.650;6.832;2023-02-01T17:39:00;13.60;;;3.05;;
74851;SDS011;63400;50.650;6.832;2023-02-01T17:41:28;14.80;;;3.55;;
74851;SDS011;63400;50.650;6.832;2023-02-01T17:43:54;11.63;;;3.42;;
74851;SDS011;63400;50.650;6.832;2023-02-01T17:46:19;10.60;;;2.92;;
74851;SDS011;63400;50.650;6.832;2023-02-01T17:48:51;15.05;;;3.42;;
74851;SDS011;63400;50.650;6.832;2023-02-01T17:51:21;11.98;;;4.03;;
74851;SDS011;63400;50.650;6.832;2023-02-01T17:53:48;16.67;;;3.88;;
74851;SDS011;63400;50.650;6.832;2023-02-01T17:56:15;16.35;;;4.25;;
74851;SDS011;63400;50.650;6.832;2023-02-01T17:58:43;16.20;;;4.30;;
74851;SDS011;63400;50.650;6.832;2023-02-01T18:01:16;13.43;;;3.67;;
74851;SDS011;63400;50.650;6.832;2023-02-01T18:03:49;12.45;;;3.22;;
74851;SDS011;63400;50.650;6.832;2023-02-01T18:06:17;12.82;;;3.55;;
74851;SDS011;63400;50.650;6.832;2023-02-01T18:08:44;12.88;;;3.88;;
74851;SDS011;63400;50.650;6.832;2023-02-01T18:11:15;13.25;;;4.22;;
74851;SDS011;63400;50.650;6.832;2023-02-01T18:16:19;12.73;;;3.58;;
74851;SDS011;63400;50.650;6.832;2023-02-01T18:18:46;11.45;;;3.67;;
74851;SDS011;63400;50.650;6.832;2023-02-01T18:21:13;14.65;;;3.55;;
74851;SDS011;63400;50.650;6.832;2023-02-01T18:26:07;12.55;;;2.92;;
74851;SDS011;63400;50.650;6.832;2023-02-01T18:28:35;15.27;;;4.70;;
74851;SDS011;63400;50.650;6.832;2023-02-01T18:31:02;12.15;;;3.80;;
74851;SDS011;63400;50.650;6.832;2023-02-01T18:33:29;17.90;;;5.13;;
74851;SDS011;63400;50.650;6.832;2023-02-01T18:35:55;13.02;;;3.55;;
74851;SDS011;63400;50.650;6.832;2023-02-01T18:38:21;14.25;;;3.88;;
74851;SDS011;63400;50.650;6.832;2023-02-01T18:40:50;13.35;;;3.50;;
74851;SDS011;63400;50.650;6.832;2023-02-01T18:43:17;14.35;;;5.07;;
74851;SDS011;63400;50.650;6.832;2023-02-01T18:45:44;16.67;;;4.45;;
74851;SDS011;63400;50.650;6.832;2023-02-01T18:48:11;18.38;;;4.35;;
74851;SDS011;63400;50.650;6.832;2023-02-01T18:50:39;18.55;;;4.72;;
74851;SDS011;63400;50.650;6.832;2023-02-01T18:53:09;15.30;;;4.35;;
74851;SDS011;63400;50.650;6.832;2023-02-01T18:55:38;19.83;;;4.95;;
74851;SDS011;63400;50.650;6.832;2023-02-01T18:58:04;16.23;;;3.95;;
74851;SDS011;63400;50.650;6.832;2023-02-01T19:00:33;18.65;;;5.22;;
74851;SDS011;63400;50.650;6.832;2023-02-01T19:02:59;13.70;;;3.95;;
74851;SDS011;63400;50.650;6.832;2023-02-01T19:05:25;18.63;;;4.75;;
74851;SDS011;63400;50.650;6.832;2023-02-01T19:07:51;16.33;;;4.90;;
74851;SDS011;63400;50.650;6.832;2023-02-01T19:10:21;16.83;;;4.20;;
74851;SDS011;63400;50.650;6.832;2023-02-01T19:12:48;18.98;;;5.43;;
74851;SDS011;63400;50.650;6.832;2023-02-01T19:15:15;17.92;;;3.97;;
74851;SDS011;63400;50.650;6.832;2023-02-01T19:17:41;16.98;;;4.90;;
74851;SDS011;63400;50.650;6.832;2023-02-01T19:20:09;13.48;;;3.88;;
74851;SDS011;63400;50.650;6.832;2023-02-01T19:22:36;19.63;;;5.30;;
74851;SDS011;63400;50.650;6.832;2023-02-01T19:25:01;16.40;;;3.85;;
74851;SDS011;63400;50.650;6.832;2023-02-01T19:27:28;17.65;;;4.15;;
74851;SDS011;63400;50.650;6.832;2023-02-01T19:29:54;14.07;;;3.30;;
74851;SDS011;63400;50.650;6.832;2023-02-01T19:32:19;19.08;;;4.03;;
74851;SDS011;63400;50.650;6.832;2023-02-01T19:34:45;24.52;;;4.75;;
74851;SDS011;63400;50.650;6.832;2023-02-01T19:37:10;16.88;;;4.68;;
74851;SDS011;63400;50.650;6.832;2023-02-01T19:39:36;19.30;;;6.43;;
74851;SDS011;63400;50.650;6.832;2023-02-01T19:42:02;13.75;;;4.78;;
74851;SDS011;63400;50.650;6.832;2023-02-01T19:44:28;13.95;;;4.07;;
74851;SDS011;63400;50.650;6.832;2023-02-01T19:46:54;19.45;;;3.85;;
74851;SDS011;63400;50.650;6.832;2023-02-01T19:49:20;18.20;;;4.72;;
74851;SDS011;63400;50.650;6.832;2023-02-01T19:51:46;16.23;;;4.63;;
74851;SDS011;63400;50.650;6.832;2023-02-01T19:54:13;16.20;;;4.07;;
74851;SDS011;63400;50.650;6.832;2023-02-01T19:56:39;17.98;;;4.93;;
74851;SDS011;63400;50.650;6.832;2023-02-01T19:59:05;20.63;;;5.38;;
74851;SDS011;63400;50.650;6.832;2023-02-01T20:01:31;17.70;;;4.30;;
74851;SDS011;63400;50.650;6.832;2023-02-01T20:03:57;19.52;;;4.07;;